Weather at Hoevenen Airfield

Public forecast

Using degrees Celsius for public forecast. Weather courtesy of forecast.io.

Closest aviation weather report (METAR) to Hoevenen Airfield

Closest report is Antwerp International Airport (Deurne), 7.5 nm (13.9 km) SSE.

2024/05/25 16:20 (retrieved 39 minutes ago)

EBAW 251620Z 17003KT 110V220 9999 FEW015 18/13 Q1016 NOSIG

Closest aviation forecast (TAF) to Hoevenen Airfield

Forecast is more than 12 hours old.

Closest forecast is Woensdrecht Air Base, 8.8 nm (16.2 km) N.

2024/05/24 09:03 (retrieved 1 day ago)

TAF EHWO 240840Z 2409/2421 VRB02KT 9000 NSC TEMPO 2409/2421 4500 SHRA RA FEW016 SCT035CB BKN040 PROB30 TEMPO 2409/2413 2500 +TSRA FEW008 SCT016 BKN030CB BECMG 2412/2414 33004KT TEMPO 2420/2421 FEW012 SCT015 BKN020